sensor_id;sensor_type;location;lat;lon;timestamp;pressure;altitude;pressure_sealevel;temperature;humidity
78888;BME280;68276;49.326;8.690;2024-03-29T00:01:09;98413.41;;;9.59;56.95
78888;BME280;68276;49.326;8.690;2024-03-29T00:03:35;98434.00;;;9.59;56.71
78888;BME280;68276;49.326;8.690;2024-03-29T00:06:00;98429.69;;;9.58;57.30
78888;BME280;68276;49.326;8.690;2024-03-29T00:08:26;98410.53;;;9.54;57.34
78888;BME280;68276;49.326;8.690;2024-03-29T00:10:53;98401.16;;;9.63;55.88
78888;BME280;68276;49.326;8.690;2024-03-29T00:13:18;98382.53;;;9.68;56.02
78888;BME280;68276;49.326;8.690;2024-03-29T00:15:45;98389.06;;;9.72;55.41
78888;BME280;68276;49.326;8.690;2024-03-29T00:18:11;98382.75;;;9.67;55.83
78888;BME280;68276;49.326;8.690;2024-03-29T00:20:36;98365.81;;;9.55;56.84
78888;BME280;68276;49.326;8.690;2024-03-29T00:23:01;98364.09;;;9.42;57.21
78888;BME280;68276;49.326;8.690;2024-03-29T00:25:27;98379.06;;;9.32;57.63
78888;BME280;68276;49.326;8.690;2024-03-29T00:27:52;98369.34;;;9.19;58.48
78888;BME280;68276;49.326;8.690;2024-03-29T00:30:18;98371.88;;;9.14;59.03
78888;BME280;68276;49.326;8.690;2024-03-29T00:32:43;98375.00;;;9.11;58.77
78888;BME280;68276;49.326;8.690;2024-03-29T00:35:08;98377.44;;;9.12;58.75
78888;BME280;68276;49.326;8.690;2024-03-29T00:37:34;98364.59;;;9.21;57.46
78888;BME280;68276;49.326;8.690;2024-03-29T00:39:59;98372.00;;;9.37;56.13
78888;BME280;68276;49.326;8.690;2024-03-29T00:42:25;98382.88;;;9.42;55.89
78888;BME280;68276;49.326;8.690;2024-03-29T00:44:50;98344.47;;;9.78;53.50
78888;BME280;68276;49.326;8.690;2024-03-29T00:47:16;98358.81;;;9.83;53.94
78888;BME280;68276;49.326;8.690;2024-03-29T00:49:41;98339.31;;;9.76;54.27
78888;BME280;68276;49.326;8.690;2024-03-29T00:52:07;98347.81;;;9.73;54.79
78888;BME280;68276;49.326;8.690;2024-03-29T00:54:32;98349.09;;;9.71;54.74
78888;BME280;68276;49.326;8.690;2024-03-29T00:56:58;98350.34;;;9.68;54.92
78888;BME280;68276;49.326;8.690;2024-03-29T00:59:23;98342.19;;;9.63;55.29
78888;BME280;68276;49.326;8.690;2024-03-29T01:01:50;98334.50;;;9.67;54.65
78888;BME280;68276;49.326;8.690;2024-03-29T01:04:15;98326.44;;;9.67;55.14
78888;BME280;68276;49.326;8.690;2024-03-29T01:06:41;98324.59;;;9.67;54.39
78888;BME280;68276;49.326;8.690;2024-03-29T01:09:07;98315.84;;;9.72;54.13
78888;BME280;68276;49.326;8.690;2024-03-29T01:11:39;98313.28;;;9.65;54.80
78888;BME280;68276;49.326;8.690;2024-03-29T01:14:05;98321.66;;;9.57;55.39
78888;BME280;68276;49.326;8.690;2024-03-29T01:16:31;98318.38;;;9.55;55.24
78888;BME280;68276;49.326;8.690;2024-03-29T01:18:57;98318.03;;;9.63;55.01
78888;BME280;68276;49.326;8.690;2024-03-29T01:21:23;98297.97;;;9.54;55.97
78888;BME280;68276;49.326;8.690;2024-03-29T01:23:49;98292.41;;;9.56;55.30
78888;BME280;68276;49.326;8.690;2024-03-29T01:26:14;98294.03;;;9.57;55.67
78888;BME280;68276;49.326;8.690;2024-03-29T01:28:42;98302.66;;;9.59;55.21
78888;BME280;68276;49.326;8.690;2024-03-29T01:31:07;98322.44;;;9.58;56.04
78888;BME280;68276;49.326;8.690;2024-03-29T01:33:33;98324.13;;;9.41;56.79
78888;BME280;68276;49.326;8.690;2024-03-29T01:36:01;98308.75;;;9.36;57.75
78888;BME280;68276;49.326;8.690;2024-03-29T01:38:27;98285.63;;;9.53;55.56
78888;BME280;68276;49.326;8.690;2024-03-29T01:40:52;98284.03;;;9.64;55.88
78888;BME280;68276;49.326;8.690;2024-03-29T01:43:18;98266.66;;;9.66;55.21
78888;BME280;68276;49.326;8.690;2024-03-29T01:45:47;98266.94;;;9.76;55.11
78888;BME280;68276;49.326;8.690;2024-03-29T01:48:13;98287.44;;;9.82;55.62
78888;BME280;68276;49.326;8.690;2024-03-29T01:50:38;98287.19;;;9.72;55.84
78888;BME280;68276;49.326;8.690;2024-03-29T01:53:05;98261.22;;;9.73;55.58
78888;BME280;68276;49.326;8.690;2024-03-29T01:55:33;98283.03;;;9.76;55.76
78888;BME280;68276;49.326;8.690;2024-03-29T01:57:58;98299.00;;;9.83;55.75
78888;BME280;68276;49.326;8.690;2024-03-29T02:00:24;98302.72;;;9.82;55.77
78888;BME280;68276;49.326;8.690;2024-03-29T02:02:53;98322.03;;;9.72;56.80
78888;BME280;68276;49.326;8.690;2024-03-29T02:05:18;98314.53;;;9.63;57.18
78888;BME280;68276;49.326;8.690;2024-03-29T02:07:45;98322.38;;;9.64;57.32
78888;BME280;68276;49.326;8.690;2024-03-29T02:10:14;98311.91;;;9.74;56.64
78888;BME280;68276;49.326;8.690;2024-03-29T02:12:39;98304.47;;;9.76;57.04
78888;BME280;68276;49.326;8.690;2024-03-29T02:15:05;98303.19;;;9.79;56.79
78888;BME280;68276;49.326;8.690;2024-03-29T02:17:34;98308.91;;;9.82;56.76
78888;BME280;68276;49.326;8.690;2024-03-29T02:19:59;98294.00;;;9.86;56.72
78888;BME280;68276;49.326;8.690;2024-03-29T02:22:25;98276.25;;;9.85;57.05
78888;BME280;68276;49.326;8.690;2024-03-29T02:24:52;98282.31;;;9.92;56.80
78888;BME280;68276;49.326;8.690;2024-03-29T02:27:18;98282.69;;;9.96;56.13
78888;BME280;68276;49.326;8.690;2024-03-29T02:29:45;98276.06;;;9.98;56.34
78888;BME280;68276;49.326;8.690;2024-03-29T02:32:10;98288.41;;;9.99;56.28
78888;BME280;68276;49.326;8.690;2024-03-29T02:34:35;98278.84;;;10.03;56.28
78888;BME280;68276;49.326;8.690;2024-03-29T02:37:01;98274.09;;;10.05;55.95
78888;BME280;68276;49.326;8.690;2024-03-29T02:39:27;98279.84;;;10.09;55.42
78888;BME280;68276;49.326;8.690;2024-03-29T02:41:52;98289.13;;;10.06;56.18
78888;BME280;68276;49.326;8.690;2024-03-29T02:44:18;98286.44;;;10.06;56.47
78888;BME280;68276;49.326;8.690;2024-03-29T02:46:43;98297.66;;;10.15;55.84
78888;BME280;68276;49.326;8.690;2024-03-29T02:49:09;98293.59;;;10.12;55.95
78888;BME280;68276;49.326;8.690;2024-03-29T02:51:35;98308.53;;;10.08;56.49
78888;BME280;68276;49.326;8.690;2024-03-29T02:54:00;98311.41;;;10.07;55.97
78888;BME280;68276;49.326;8.690;2024-03-29T02:56:25;98303.59;;;10.05;55.95
78888;BME280;68276;49.326;8.690;2024-03-29T02:58:52;98293.53;;;10.01;56.82
78888;BME280;68276;49.326;8.690;2024-03-29T03:01:17;98314.19;;;10.00;56.63
78888;BME280;68276;49.326;8.690;2024-03-29T03:03:43;98307.66;;;9.96;57.04
78888;BME280;68276;49.326;8.690;2024-03-29T03:06:08;98328.03;;;9.97;56.72
78888;BME280;68276;49.326;8.690;2024-03-29T03:08:34;98321.88;;;9.97;56.72
78888;BME280;68276;49.326;8.690;2024-03-29T03:11:18;98321.88;;;9.97;56.57
78888;BME280;68276;49.326;8.690;2024-03-29T03:13:43;98322.69;;;9.97;56.60
78888;BME280;68276;49.326;8.690;2024-03-29T03:16:08;98316.41;;;10.03;56.33
78888;BME280;68276;49.326;8.690;2024-03-29T03:18:34;98315.84;;;10.13;55.43
78888;BME280;68276;49.326;8.690;2024-03-29T03:20:59;98313.81;;;10.26;55.27
78888;BME280;68276;49.326;8.690;2024-03-29T03:23:25;98304.44;;;10.29;55.53
78888;BME280;68276;49.326;8.690;2024-03-29T03:25:58;98318.94;;;10.28;55.12
78888;BME280;68276;49.326;8.690;2024-03-29T03:28:24;98313.69;;;10.33;54.14
78888;BME280;68276;49.326;8.690;2024-03-29T03:30:51;98338.19;;;10.36;54.52
78888;BME280;68276;49.326;8.690;2024-03-29T03:33:16;98342.84;;;10.29;54.99
78888;BME280;68276;49.326;8.690;2024-03-29T03:35:42;98357.88;;;10.30;54.77
78888;BME280;68276;49.326;8.690;2024-03-29T03:38:08;98356.97;;;10.36;54.67
78888;BME280;68276;49.326;8.690;2024-03-29T03:40:37;98363.38;;;10.35;54.46
78888;BME280;68276;49.326;8.690;2024-03-29T03:43:03;98372.84;;;10.38;55.28
78888;BME280;68276;49.326;8.690;2024-03-29T03:45:28;98371.91;;;10.32;55.29
78888;BME280;68276;49.326;8.690;2024-03-29T03:47:54;98347.41;;;10.41;55.63
78888;BME280;68276;49.326;8.690;2024-03-29T03:50:20;98355.22;;;10.54;55.82
78888;BME280;68276;49.326;8.690;2024-03-29T03:52:45;98355.22;;;10.54;55.93
78888;BME280;68276;49.326;8.690;2024-03-29T03:55:10;98355.34;;;10.47;57.50
78888;BME280;68276;49.326;8.690;2024-03-29T03:57:36;98347.53;;;10.57;57.91
78888;BME280;68276;49.326;8.690;2024-03-29T04:00:01;98347.66;;;10.62;58.40
78888;BME280;68276;49.326;8.690;2024-03-29T04:02:28;98343.00;;;10.58;59.04
78888;BME280;68276;49.326;8.690;2024-03-29T04:04:54;98328.75;;;10.46;58.72
78888;BME280;68276;49.326;8.690;2024-03-29T04:07:19;98319.03;;;10.45;59.81
78888;BME280;68276;49.326;8.690;2024-03-29T04:09:45;98308.31;;;10.56;60.31
78888;BME280;68276;49.326;8.690;2024-03-29T04:12:10;98299.22;;;10.57;59.54
78888;BME280;68276;49.326;8.690;2024-03-29T04:14:36;98291.88;;;10.53;59.03
78888;BME280;68276;49.326;8.690;2024-03-29T04:17:01;98302.47;;;10.48;58.84
78888;BME280;68276;49.326;8.690;2024-03-29T04:19:27;98286.84;;;10.45;57.88
78888;BME280;68276;49.326;8.690;2024-03-29T04:21:52;98290.00;;;10.42;57.73
78888;BME280;68276;49.326;8.690;2024-03-29T04:24:17;98288.56;;;10.39;57.72
78888;BME280;68276;49.326;8.690;2024-03-29T04:26:43;98290.69;;;10.49;56.58
78888;BME280;68276;49.326;8.690;2024-03-29T04:29:10;98276.91;;;10.57;56.07
78888;BME280;68276;49.326;8.690;2024-03-29T04:31:35;98272.22;;;10.64;56.70
78888;BME280;68276;49.326;8.690;2024-03-29T04:34:01;98278.06;;;10.61;59.03
78888;BME280;68276;49.326;8.690;2024-03-29T04:36:26;98285.41;;;10.65;58.24
78888;BME280;68276;49.326;8.690;2024-03-29T04:38:51;98285.66;;;10.64;59.38
78888;BME280;68276;49.326;8.690;2024-03-29T04:41:18;98288.13;;;10.54;60.24
78888;BME280;68276;49.326;8.690;2024-03-29T04:43:44;98302.03;;;10.51;60.00
78888;BME280;68276;49.326;8.690;2024-03-29T04:46:11;98305.16;;;10.48;60.03
78888;BME280;68276;49.326;8.690;2024-03-29T04:48:37;98305.84;;;10.43;60.33
78888;BME280;68276;49.326;8.690;2024-03-29T04:51:04;98288.13;;;10.54;58.02
78888;BME280;68276;49.326;8.690;2024-03-29T04:53:29;98284.72;;;10.47;58.80
78888;BME280;68276;49.326;8.690;2024-03-29T04:55:56;98297.66;;;10.73;57.13
78888;BME280;68276;49.326;8.690;2024-03-29T04:58:22;98289.50;;;10.68;58.40
78888;BME280;68276;49.326;8.690;2024-03-29T05:00:48;98275.31;;;10.44;59.69
78888;BME280;68276;49.326;8.690;2024-03-29T05:03:14;98287.09;;;10.31;60.20
78888;BME280;68276;49.326;8.690;2024-03-29T05:05:39;98272.13;;;10.35;59.59
78888;BME280;68276;49.326;8.690;2024-03-29T05:08:05;98281.81;;;10.36;60.13
78888;BME280;68276;49.326;8.690;2024-03-29T05:10:30;98275.16;;;10.27;61.15
78888;BME280;68276;49.326;8.690;2024-03-29T05:12:56;98274.69;;;10.19;61.29
78888;BME280;68276;49.326;8.690;2024-03-29T05:15:21;98269.81;;;10.27;60.07
78888;BME280;68276;49.326;8.690;2024-03-29T05:17:47;98269.56;;;10.29;60.10
78888;BME280;68276;49.326;8.690;2024-03-29T05:20:12;98277.75;;;10.22;60.64
78888;BME280;68276;49.326;8.690;2024-03-29T05:22:37;98281.13;;;10.18;59.29
78888;BME280;68276;49.326;8.690;2024-03-29T05:25:03;98276.19;;;10.15;59.51
78888;BME280;68276;49.326;8.690;2024-03-29T05:27:29;98272.13;;;10.12;60.30
78888;BME280;68276;49.326;8.690;2024-03-29T05:29:55;98270.34;;;10.06;61.45
78888;BME280;68276;49.326;8.690;2024-03-29T05:32:20;98262.28;;;10.06;61.06
78888;BME280;68276;49.326;8.690;2024-03-29T05:34:46;98260.22;;;10.08;60.87
78888;BME280;68276;49.326;8.690;2024-03-29T05:37:12;98252.78;;;10.10;60.47
78888;BME280;68276;49.326;8.690;2024-03-29T05:39:37;98254.66;;;10.21;59.88
78888;BME280;68276;49.326;8.690;2024-03-29T05:42:03;98256.97;;;10.29;59.69
78888;BME280;68276;49.326;8.690;2024-03-29T05:44:28;98256.97;;;10.29;59.50
78888;BME280;68276;49.326;8.690;2024-03-29T05:46:53;98257.31;;;10.33;60.09
78888;BME280;68276;49.326;8.690;2024-03-29T05:49:19;98270.94;;;10.55;58.44
78888;BME280;68276;49.326;8.690;2024-03-29T05:51:44;98284.25;;;10.73;57.40
78888;BME280;68276;49.326;8.690;2024-03-29T05:54:10;98296.88;;;10.61;58.34
78888;BME280;68276;49.326;8.690;2024-03-29T05:56:35;98289.50;;;10.45;59.59
78888;BME280;68276;49.326;8.690;2024-03-29T05:59:00;98291.63;;;10.31;60.50
78888;BME280;68276;49.326;8.690;2024-03-29T06:01:26;98310.16;;;10.32;60.68
78888;BME280;68276;49.326;8.690;2024-03-29T06:03:51;98315.06;;;10.35;60.40
78888;BME280;68276;49.326;8.690;2024-03-29T06:06:18;98327.44;;;10.48;59.00
78888;BME280;68276;49.326;8.690;2024-03-29T06:08:47;98311.91;;;10.62;58.38
78888;BME280;68276;49.326;8.690;2024-03-29T06:11:12;98320.56;;;10.75;56.29
78888;BME280;68276;49.326;8.690;2024-03-29T06:13:38;98334.22;;;10.85;56.08
78888;BME280;68276;49.326;8.690;2024-03-29T06:16:23;98324.16;;;10.92;55.67
78888;BME280;68276;49.326;8.690;2024-03-29T06:19:07;98319.81;;;10.91;55.64
78888;BME280;68276;49.326;8.690;2024-03-29T06:21:33;98319.69;;;10.98;55.65
78888;BME280;68276;49.326;8.690;2024-03-29T06:24:08;98308.72;;;10.99;55.07
78888;BME280;68276;49.326;8.690;2024-03-29T06:26:34;98316.66;;;11.06;55.21
78888;BME280;68276;49.326;8.690;2024-03-29T06:29:00;98312.31;;;11.05;54.82
78888;BME280;68276;49.326;8.690;2024-03-29T06:31:26;98303.72;;;11.03;55.24
78888;BME280;68276;49.326;8.690;2024-03-29T06:33:51;98305.22;;;10.99;55.55
78888;BME280;68276;49.326;8.690;2024-03-29T06:36:17;98306.16;;;10.93;55.63
78888;BME280;68276;49.326;8.690;2024-03-29T06:38:43;98297.88;;;10.94;55.22
78888;BME280;68276;49.326;8.690;2024-03-29T06:41:08;98303.56;;;10.98;54.96
78888;BME280;68276;49.326;8.690;2024-03-29T06:43:34;98309.53;;;11.00;55.22
78888;BME280;68276;49.326;8.690;2024-03-29T06:45:59;98298.69;;;10.95;55.62
78888;BME280;68276;49.326;8.690;2024-03-29T06:48:27;98295.41;;;10.93;55.38
78888;BME280;68276;49.326;8.690;2024-03-29T06:50:53;98293.78;;;10.92;55.30
78888;BME280;68276;49.326;8.690;2024-03-29T06:53:19;98284.66;;;10.93;55.52
78888;BME280;68276;49.326;8.690;2024-03-29T06:55:45;98285.72;;;10.92;55.85
78888;BME280;68276;49.326;8.690;2024-03-29T06:58:10;98283.53;;;10.89;55.78
78888;BME280;68276;49.326;8.690;2024-03-29T07:00:36;98289.81;;;10.94;55.53
78888;BME280;68276;49.326;8.690;2024-03-29T07:03:01;98280.31;;;11.03;54.79
78888;BME280;68276;49.326;8.690;2024-03-29T07:05:27;98286.63;;;11.09;54.75
78888;BME280;68276;49.326;8.690;2024-03-29T07:07:52;98284.50;;;11.11;54.86
78888;BME280;68276;49.326;8.690;2024-03-29T07:10:19;98293.25;;;11.18;54.44
78888;BME280;68276;49.326;8.690;2024-03-29T07:12:44;98287.06;;;11.17;55.15
78888;BME280;68276;49.326;8.690;2024-03-29T07:15:10;98287.59;;;11.31;53.53
78888;BME280;68276;49.326;8.690;2024-03-29T07:17:35;98299.25;;;11.36;53.17
78888;BME280;68276;49.326;8.690;2024-03-29T07:20:02;98294.28;;;11.28;54.45
78888;BME280;68276;49.326;8.690;2024-03-29T07:22:29;98310.75;;;11.32;54.26
78888;BME280;68276;49.326;8.690;2024-03-29T07:24:54;98311.41;;;11.39;53.76
78888;BME280;68276;49.326;8.690;2024-03-29T07:27:20;98318.59;;;11.50;53.00
78888;BME280;68276;49.326;8.690;2024-03-29T07:29:46;98327.94;;;11.59;52.99
78888;BME280;68276;49.326;8.690;2024-03-29T07:32:11;98331.44;;;11.60;53.51
78888;BME280;68276;49.326;8.690;2024-03-29T07:34:36;98353.44;;;11.68;53.39
78888;BME280;68276;49.326;8.690;2024-03-29T07:37:04;98356.69;;;11.70;53.03
78888;BME280;68276;49.326;8.690;2024-03-29T07:39:30;98342.41;;;11.70;54.13
78888;BME280;68276;49.326;8.690;2024-03-29T07:41:55;98341.69;;;11.74;55.85
78888;BME280;68276;49.326;8.690;2024-03-29T07:44:20;98351.50;;;11.80;55.90
78888;BME280;68276;49.326;8.690;2024-03-29T07:46:46;98348.88;;;11.69;58.16
78888;BME280;68276;49.326;8.690;2024-03-29T07:49:14;98357.75;;;11.57;59.46
78888;BME280;68276;49.326;8.690;2024-03-29T07:51:39;98355.47;;;11.49;59.80
78888;BME280;68276;49.326;8.690;2024-03-29T07:54:05;98364.84;;;11.35;61.98
78888;BME280;68276;49.326;8.690;2024-03-29T07:56:30;98364.75;;;11.19;64.03
78888;BME280;68276;49.326;8.690;2024-03-29T07:58:59;98365.72;;;11.13;65.69
78888;BME280;68276;49.326;8.690;2024-03-29T08:01:25;98359.50;;;11.12;66.74
78888;BME280;68276;49.326;8.690;2024-03-29T08:03:51;98373.19;;;11.11;68.85
78888;BME280;68276;49.326;8.690;2024-03-29T08:06:19;98373.66;;;11.08;68.47
78888;BME280;68276;49.326;8.690;2024-03-29T08:08:44;98364.44;;;11.04;70.68
78888;BME280;68276;49.326;8.690;2024-03-29T08:11:11;98360.22;;;11.08;71.73
78888;BME280;68276;49.326;8.690;2024-03-29T08:13:38;98365.03;;;11.06;74.11
78888;BME280;68276;49.326;8.690;2024-03-29T08:16:04;98377.88;;;11.04;74.30
78888;BME280;68276;49.326;8.690;2024-03-29T08:18:31;98374.13;;;10.93;74.17
78888;BME280;68276;49.326;8.690;2024-03-29T08:20:57;98386.88;;;10.86;74.19
78888;BME280;68276;49.326;8.690;2024-03-29T08:23:23;98392.72;;;10.83;75.38
78888;BME280;68276;49.326;8.690;2024-03-29T08:25:49;98396.44;;;10.82;75.27
78888;BME280;68276;49.326;8.690;2024-03-29T08:28:17;98403.59;;;10.77;75.67
78888;BME280;68276;49.326;8.690;2024-03-29T08:30:42;98418.75;;;10.71;76.58
78888;BME280;68276;49.326;8.690;2024-03-29T08:33:08;98428.66;;;10.59;78.64
78888;BME280;68276;49.326;8.690;2024-03-29T08:35:33;98417.78;;;10.43;81.34
78888;BME280;68276;49.326;8.690;2024-03-29T08:38:00;98422.16;;;10.25;82.79
78888;BME280;68276;49.326;8.690;2024-03-29T08:40:27;98435.69;;;10.19;84.04
78888;BME280;68276;49.326;8.690;2024-03-29T08:42:54;98440.09;;;10.13;85.58
78888;BME280;68276;49.326;8.690;2024-03-29T08:45:20;98439.34;;;10.06;88.40
78888;BME280;68276;49.326;8.690;2024-03-29T08:47:46;98445.78;;;10.05;87.70
78888;BME280;68276;49.326;8.690;2024-03-29T08:50:11;98444.31;;;10.09;89.80
78888;BME280;68276;49.326;8.690;2024-03-29T08:52:38;98442.00;;;9.95;90.61
78888;BME280;68276;49.326;8.690;2024-03-29T08:55:05;98447.59;;;9.93;92.85
78888;BME280;68276;49.326;8.690;2024-03-29T08:57:30;98456.09;;;9.90;95.53
78888;BME280;68276;49.326;8.690;2024-03-29T08:59:56;98461.88;;;9.87;95.72
78888;BME280;68276;49.326;8.690;2024-03-29T09:02:21;98458.97;;;9.89;95.71
78888;BME280;68276;49.326;8.690;2024-03-29T09:04:47;98464.28;;;9.95;93.89
78888;BME280;68276;49.326;8.690;2024-03-29T09:07:12;98474.88;;;9.90;95.25
78888;BME280;68276;49.326;8.690;2024-03-29T09:09:37;98484.22;;;9.99;95.88
78888;BME280;68276;49.326;8.690;2024-03-29T09:12:07;98490.63;;;9.98;95.11
78888;BME280;68276;49.326;8.690;2024-03-29T09:14:33;98488.09;;;10.03;94.76
78888;BME280;68276;49.326;8.690;2024-03-29T09:16:58;98496.59;;;10.00;93.52
78888;BME280;68276;49.326;8.690;2024-03-29T09:19:24;98498.38;;;10.06;94.98
78888;BME280;68276;49.326;8.690;2024-03-29T09:21:50;98491.09;;;9.95;97.91
78888;BME280;68276;49.326;8.690;2024-03-29T09:24:15;98499.06;;;10.02;98.26
78888;BME280;68276;49.326;8.690;2024-03-29T09:26:42;98496.69;;;10.12;98.10
78888;BME280;68276;49.326;8.690;2024-03-29T09:29:07;98505.06;;;10.33;97.07
78888;BME280;68276;49.326;8.690;2024-03-29T09:31:33;98505.47;;;10.49;95.89
78888;BME280;68276;49.326;8.690;2024-03-29T09:33:58;98516.72;;;10.39;94.31
78888;BME280;68276;49.326;8.690;2024-03-29T09:36:24;98529.22;;;10.33;93.48
78888;BME280;68276;49.326;8.690;2024-03-29T09:38:50;98518.50;;;10.15;94.31
78888;BME280;68276;49.326;8.690;2024-03-29T09:41:18;98537.44;;;10.02;94.69
78888;BME280;68276;49.326;8.690;2024-03-29T09:43:47;98549.06;;;9.96;94.21
78888;BME280;68276;49.326;8.690;2024-03-29T09:46:13;98551.13;;;9.94;95.82
78888;BME280;68276;49.326;8.690;2024-03-29T09:48:40;98552.47;;;10.03;98.68
78888;BME280;68276;49.326;8.690;2024-03-29T09:51:07;98536.41;;;10.21;100.00
78888;BME280;68276;49.326;8.690;2024-03-29T09:53:34;98531.19;;;10.26;100.00
78888;BME280;68276;49.326;8.690;2024-03-29T09:56:04;98538.41;;;10.26;100.00
78888;BME280;68276;49.326;8.690;2024-03-29T09:58:31;98528.56;;;10.50;100.00
78888;BME280;68276;49.326;8.690;2024-03-29T10:00:57;98531.31;;;10.73;100.00
78888;BME280;68276;49.326;8.690;2024-03-29T10:03:25;98535.44;;;10.87;100.00
78888;BME280;68276;49.326;8.690;2024-03-29T10:06:04;98532.41;;;10.95;100.00
78888;BME280;68276;49.326;8.690;2024-03-29T10:08:33;98527.28;;;11.05;100.00
78888;BME280;68276;49.326;8.690;2024-03-29T10:10:59;98527.06;;;11.06;100.00
78888;BME280;68276;49.326;8.690;2024-03-29T10:13:27;98527.50;;;10.92;100.00
78888;BME280;68276;49.326;8.690;2024-03-29T10:15:54;98524.94;;;10.97;100.00
78888;BME280;68276;49.326;8.690;2024-03-29T10:18:27;98520.50;;;11.02;100.00
78888;BME280;68276;49.326;8.690;2024-03-29T10:21:03;98506.13;;;10.97;100.00
78888;BME280;68276;49.326;8.690;2024-03-29T10:23:30;98505.44;;;10.90;100.00
78888;BME280;68276;49.326;8.690;2024-03-29T10:25:56;98509.06;;;10.95;100.00
78888;BME280;68276;49.326;8.690;2024-03-29T10:28:22;98510.81;;;11.01;100.00
78888;BME280;68276;49.326;8.690;2024-03-29T10:30:49;98503.81;;;11.12;100.00
78888;BME280;68276;49.326;8.690;2024-03-29T10:33:16;98502.28;;;11.27;100.00
78888;BME280;68276;49.326;8.690;2024-03-29T10:35:44;98487.78;;;11.40;100.00
78888;BME280;68276;49.326;8.690;2024-03-29T10:38:10;98496.78;;;11.57;100.00
78888;BME280;68276;49.326;8.690;2024-03-29T10:40:39;98501.22;;;11.63;100.00
78888;BME280;68276;49.326;8.690;2024-03-29T10:43:09;98493.97;;;11.52;100.00
78888;BME280;68276;49.326;8.690;2024-03-29T10:45:38;98498.66;;;11.57;100.00
78888;BME280;68276;49.326;8.690;2024-03-29T10:48:04;98496.09;;;11.73;100.00
78888;BME280;68276;49.326;8.690;2024-03-29T10:50:35;98482.16;;;11.76;100.00
78888;BME280;68276;49.326;8.690;2024-03-29T10:53:01;98462.03;;;11.79;100.00
78888;BME280;68276;49.326;8.690;2024-03-29T10:55:33;98459.31;;;11.90;100.00
78888;BME280;68276;49.326;8.690;2024-03-29T10:58:00;98460.63;;;11.88;100.00
78888;BME280;68276;49.326;8.690;2024-03-29T11:00:28;98456.72;;;11.95;100.00
78888;BME280;68276;49.326;8.690;2024-03-29T11:03:12;98455.78;;;12.01;100.00
78888;BME280;68276;49.326;8.690;2024-03-29T11:05:41;98448.81;;;12.05;100.00
78888;BME280;68276;49.326;8.690;2024-03-29T11:08:09;98440.56;;;11.95;100.00
78888;BME280;68276;49.326;8.690;2024-03-29T11:10:42;98441.06;;;11.92;100.00
78888;BME280;68276;49.326;8.690;2024-03-29T11:15:45;98426.16;;;12.01;100.00
78888;BME280;68276;49.326;8.690;2024-03-29T11:18:13;98417.03;;;12.02;100.00
78888;BME280;68276;49.326;8.690;2024-03-29T11:20:39;98412.72;;;12.18;100.00
78888;BME280;68276;49.326;8.690;2024-03-29T11:23:11;98424.72;;;12.10;100.00
78888;BME280;68276;49.326;8.690;2024-03-29T11:25:44;98420.97;;;12.11;100.00
78888;BME280;68276;49.326;8.690;2024-03-29T11:28:15;98416.84;;;12.37;100.00
78888;BME280;68276;49.326;8.690;2024-03-29T11:30:47;98409.84;;;12.52;100.00
78888;BME280;68276;49.326;8.690;2024-03-29T11:35:50;98415.78;;;13.04;100.00
78888;BME280;68276;49.326;8.690;2024-03-29T11:38:19;98400.63;;;13.58;99.37
78888;BME280;68276;49.326;8.690;2024-03-29T11:41:00;98401.41;;;13.80;98.62
78888;BME280;68276;49.326;8.690;2024-03-29T11:43:25;98404.97;;;13.59;100.00
78888;BME280;68276;49.326;8.690;2024-03-29T11:45:54;98411.59;;;13.51;100.00
78888;BME280;68276;49.326;8.690;2024-03-29T11:48:23;98415.22;;;13.19;100.00
78888;BME280;68276;49.326;8.690;2024-03-29T11:50:51;98421.31;;;13.14;100.00
78888;BME280;68276;49.326;8.690;2024-03-29T11:53:16;98441.03;;;13.15;100.00
78888;BME280;68276;49.326;8.690;2024-03-29T11:55:42;98443.31;;;13.06;100.00
78888;BME280;68276;49.326;8.690;2024-03-29T11:58:07;98440.56;;;12.85;100.00
78888;BME280;68276;49.326;8.690;2024-03-29T12:00:33;98451.00;;;12.81;100.00
78888;BME280;68276;49.326;8.690;2024-03-29T12:02:58;98449.69;;;12.67;100.00
78888;BME280;68276;49.326;8.690;2024-03-29T12:05:24;98462.91;;;12.68;100.00
78888;BME280;68276;49.326;8.690;2024-03-29T12:07:49;98457.59;;;12.57;100.00
78888;BME280;68276;49.326;8.690;2024-03-29T12:10:15;98459.09;;;12.36;100.00
78888;BME280;68276;49.326;8.690;2024-03-29T12:12:42;98464.31;;;12.26;100.00
78888;BME280;68276;49.326;8.690;2024-03-29T12:15:08;98473.38;;;12.20;100.00
78888;BME280;68276;49.326;8.690;2024-03-29T12:17:34;98472.44;;;12.15;100.00
78888;BME280;68276;49.326;8.690;2024-03-29T12:19:59;98480.56;;;12.03;100.00
78888;BME280;68276;49.326;8.690;2024-03-29T12:22:30;98493.63;;;12.11;100.00
78888;BME280;68276;49.326;8.690;2024-03-29T12:24:56;98490.09;;;12.22;100.00
78888;BME280;68276;49.326;8.690;2024-03-29T12:27:21;98498.03;;;12.17;100.00
78888;BME280;68276;49.326;8.690;2024-03-29T12:29:50;98492.66;;;12.17;100.00
78888;BME280;68276;49.326;8.690;2024-03-29T12:32:18;98496.34;;;12.11;100.00
78888;BME280;68276;49.326;8.690;2024-03-29T12:34:45;98493.81;;;12.21;100.00
78888;BME280;68276;49.326;8.690;2024-03-29T12:37:10;98497.59;;;12.20;100.00
78888;BME280;68276;49.326;8.690;2024-03-29T12:39:36;98507.09;;;12.11;100.00
78888;BME280;68276;49.326;8.690;2024-03-29T12:42:04;98511.34;;;11.96;100.00
78888;BME280;68276;49.326;8.690;2024-03-29T12:44:30;98508.47;;;11.74;100.00
78888;BME280;68276;49.326;8.690;2024-03-29T12:46:57;98523.47;;;11.70;100.00
78888;BME280;68276;49.326;8.690;2024-03-29T12:49:26;98519.47;;;11.61;100.00
78888;BME280;68276;49.326;8.690;2024-03-29T12:51:52;98504.94;;;11.62;100.00
78888;BME280;68276;49.326;8.690;2024-03-29T12:54:18;98494.09;;;11.80;100.00
78888;BME280;68276;49.326;8.690;2024-03-29T12:56:44;98513.00;;;11.62;100.00
78888;BME280;68276;49.326;8.690;2024-03-29T12:59:10;98517.97;;;11.42;100.00
78888;BME280;68276;49.326;8.690;2024-03-29T13:01:35;98510.72;;;11.42;100.00